Terminal Aerodrome Forecast
Issued by NWS

Home | Current Version | Previous Version | Text Only | Print | Product List | Glossary On
Versions: 1 2 3 4 5 6 7 8 9 10 11 12 13 14 15 16 17 18 19 20 21 22 23
000
FTUS43 KIND 020200 AAA
TAFLAF
TAF AMD
KLAF 020218Z 0202/0224 22005KT P6SM SCT040 BKN120
     FM020700 23004KT 4SM -TSRA BR OVC025CB
     FM021300 30004KT 3SM BR VCSH BKN015
     FM021600 27005KT P6SM SCT040 BKN250
      AMD LTD TO CLD VIS AND WIND TIL 021300=

USA.gov is the U.S. government's official web portal to all federal, state and local government web resources and services.